createdAt,value
2018-05-14T00:00:46.213Z,94.51
2018-05-14T00:03:13.597Z,94.33
2018-05-14T00:05:41.002Z,93.77
2018-05-14T00:08:08.391Z,93.47
2018-05-14T00:10:35.811Z,92.85
2018-05-14T00:13:03.204Z,92.31
2018-05-14T00:15:30.590Z,92.24
2018-05-14T00:17:57.971Z,92.52
2018-05-14T00:20:25.455Z,93.23
2018-05-14T00:22:52.835Z,93.41
2018-05-14T00:25:20.221Z,93.03
2018-05-14T00:27:47.705Z,92.46
2018-05-14T00:30:14.979Z,92.40
2018-05-14T00:32:42.368Z,92.58
2018-05-14T00:35:09.831Z,92.61
2018-05-14T00:37:37.207Z,93.15
2018-05-14T00:40:04.631Z,93.73
2018-05-14T00:42:32.003Z,94.60
2018-05-14T00:44:59.398Z,94.99
2018-05-14T00:47:26.831Z,95.57
2018-05-14T00:49:54.205Z,95.02
2018-05-14T00:52:21.592Z,94.86
2018-05-14T00:55:00.858Z,94.23
2018-05-14T00:57:28.227Z,94.01
2018-05-14T00:59:55.610Z,93.98
2018-05-14T01:02:23.012Z,93.81
2018-05-14T01:04:50.395Z,93.23
2018-05-14T01:07:17.787Z,92.63
2018-05-14T01:09:45.171Z,91.33
2018-05-14T01:12:12.569Z,90.22
2018-05-14T01:14:39.943Z,89.49
2018-05-14T01:17:07.337Z,89.05
2018-05-14T01:19:34.714Z,88.92
2018-05-14T01:22:02.091Z,89.00
2018-05-14T01:24:29.463Z,89.15
2018-05-14T01:26:56.860Z,89.35
2018-05-14T01:29:24.236Z,89.24
2018-05-14T01:31:51.628Z,89.11
2018-05-14T01:34:19.018Z,88.67
2018-05-14T01:36:46.417Z,88.45
2018-05-14T01:39:13.785Z,88.74
2018-05-14T01:41:41.181Z,89.11
2018-05-14T01:44:08.584Z,88.75
2018-05-14T01:46:35.971Z,88.34
2018-05-14T01:49:03.351Z,88.16
2018-05-14T01:51:30.744Z,88.35
2018-05-14T01:53:58.121Z,88.65
2018-05-14T01:56:25.513Z,88.97
2018-05-14T01:58:52.903Z,88.78
2018-05-14T02:01:20.315Z,88.99
2018-05-14T02:03:47.709Z,88.83
2018-05-14T02:06:15.110Z,89.14
2018-05-14T02:08:42.499Z,89.28
2018-05-14T02:11:10.800Z,89.37
2018-05-14T02:13:38.183Z,89.43
2018-05-14T02:16:05.592Z,89.28
2018-05-14T02:18:32.981Z,89.44
2018-05-14T02:21:00.363Z,89.29
2018-05-14T02:23:27.752Z,89.60
2018-05-14T02:25:55.149Z,89.56
2018-05-14T02:28:22.545Z,89.88
2018-05-14T02:30:49.928Z,89.60
2018-05-14T02:33:17.864Z,89.77
2018-05-14T02:35:45.266Z,89.91
2018-05-14T02:38:12.643Z,89.58
2018-05-14T02:40:40.046Z,89.48
2018-05-14T02:43:07.447Z,89.43
2018-05-14T02:45:34.852Z,89.59
2018-05-14T02:48:02.249Z,89.54
2018-05-14T02:50:29.654Z,89.68
2018-05-14T02:52:57.048Z,89.78
2018-05-14T02:55:24.437Z,89.78
2018-05-14T02:57:51.828Z,89.98
2018-05-14T03:00:19.207Z,89.84
2018-05-14T03:02:46.596Z,89.38
2018-05-14T03:05:13.973Z,89.40
2018-05-14T03:07:41.370Z,89.43
2018-05-14T03:10:08.759Z,89.00
2018-05-14T03:12:36.169Z,89.02
2018-05-14T03:15:03.566Z,89.12
2018-05-14T03:17:30.957Z,88.73
2018-05-14T03:19:58.347Z,88.55
2018-05-14T03:22:25.736Z,88.18
2018-05-14T03:24:53.132Z,88.53
2018-05-14T03:27:20.579Z,89.08
2018-05-14T03:29:47.968Z,88.95
2018-05-14T03:32:15.359Z,88.67
2018-05-14T03:34:42.744Z,87.87
2018-05-14T03:37:10.161Z,87.81
2018-05-14T03:39:37.555Z,88.26
2018-05-14T03:42:04.951Z,88.63
2018-05-14T03:44:32.324Z,89.34
2018-05-14T03:46:59.719Z,88.86
2018-05-14T03:49:27.120Z,88.76
2018-05-14T03:51:54.507Z,88.83
2018-05-14T03:54:21.909Z,88.48
2018-05-14T03:56:49.302Z,88.07
2018-05-14T03:59:28.330Z,88.02
2018-05-14T04:02:20.991Z,87.67
2018-05-14T04:05:00.212Z,87.68
2018-05-14T04:07:27.621Z,87.72
2018-05-14T04:09:55.028Z,87.15
2018-05-14T04:12:22.437Z,87.22
2018-05-14T04:14:49.839Z,87.07
2018-05-14T04:17:17.232Z,87.05
2018-05-14T04:19:44.616Z,87.19
2018-05-14T04:22:12.003Z,87.24
2018-05-14T04:24:39.387Z,87.55
2018-05-14T04:27:06.777Z,87.23
2018-05-14T04:29:34.164Z,87.21
2018-05-14T04:32:01.553Z,86.90
2018-05-14T04:34:28.962Z,87.00
2018-05-14T04:36:56.345Z,87.08
2018-05-14T04:39:23.830Z,87.55
2018-05-14T04:41:51.232Z,87.61
2018-05-14T04:44:18.617Z,87.50
2018-05-14T04:46:46.906Z,87.36
2018-05-14T04:49:14.297Z,86.85
2018-05-14T04:51:41.679Z,86.93
2018-05-14T04:54:09.073Z,86.54
2018-05-14T04:56:36.507Z,86.34
2018-05-14T04:59:03.921Z,86.23
2018-05-14T05:01:31.325Z,85.92
2018-05-14T05:03:58.703Z,85.98
2018-05-14T05:06:26.100Z,86.10
2018-05-14T05:08:53.532Z,85.90
2018-05-14T05:11:21.043Z,84.90
2018-05-14T05:13:48.427Z,85.32
2018-05-14T05:16:15.809Z,85.26
2018-05-14T05:18:43.228Z,85.06
2018-05-14T05:21:11.271Z,84.60
2018-05-14T05:23:38.659Z,84.87
2018-05-14T05:26:06.053Z,84.67
2018-05-14T05:28:33.439Z,84.55
2018-05-14T05:31:00.830Z,84.44
2018-05-14T05:33:28.217Z,84.28
2018-05-14T05:38:29.431Z,83.28
2018-05-14T05:40:56.816Z,83.42
2018-05-14T05:43:24.226Z,83.36
2018-05-14T05:45:51.611Z,83.19
2018-05-14T05:48:19.017Z,83.75
2018-05-14T05:50:46.404Z,83.39
2018-05-14T05:53:13.792Z,82.88
2018-05-14T05:55:41.191Z,82.91
2018-05-14T05:58:08.584Z,83.46
2018-05-14T06:00:35.992Z,83.48
2018-05-14T06:03:03.367Z,82.65
2018-05-14T06:05:30.767Z,82.04
2018-05-14T06:07:58.166Z,82.08
2018-05-14T06:10:25.552Z,82.51
2018-05-14T06:12:52.939Z,82.84
2018-05-14T06:15:20.339Z,82.31
2018-05-14T06:17:47.743Z,81.58
2018-05-14T06:20:15.139Z,81.61
2018-05-14T06:22:42.546Z,81.65
2018-05-14T06:25:09.931Z,82.18
2018-05-14T06:27:37.319Z,82.53
2018-05-14T06:30:04.712Z,81.63
2018-05-14T06:32:32.190Z,81.81
2018-05-14T06:34:59.587Z,80.66
2018-05-14T06:37:26.976Z,79.65
2018-05-14T06:39:54.373Z,79.76
2018-05-14T06:42:21.776Z,79.84
2018-05-14T06:44:49.176Z,79.98
2018-05-14T06:47:16.640Z,79.87
2018-05-14T06:49:44.119Z,79.53
2018-05-14T06:52:11.416Z,79.11
2018-05-14T06:54:38.803Z,79.17
2018-05-14T06:57:06.197Z,79.12
2018-05-14T06:59:33.579Z,78.67
2018-05-14T07:02:00.959Z,78.74
2018-05-14T07:04:28.370Z,78.58
2018-05-14T07:06:55.803Z,78.43
2018-05-14T07:09:23.231Z,79.05
2018-05-14T07:11:50.605Z,77.85
2018-05-14T07:14:17.998Z,77.31
2018-05-14T07:16:45.387Z,77.87
2018-05-14T07:19:12.856Z,76.48
2018-05-14T07:21:40.166Z,75.99
2018-05-14T07:24:07.562Z,75.82
2018-05-14T07:26:34.959Z,75.59
2018-05-14T07:29:02.510Z,75.81
2018-05-14T07:31:29.908Z,75.92
2018-05-14T07:33:57.316Z,76.34
2018-05-14T07:36:24.707Z,76.21
2018-05-14T07:38:52.111Z,76.22
2018-05-14T07:41:19.504Z,75.05
2018-05-14T07:43:46.907Z,74.72
2018-05-14T07:46:14.298Z,75.31
2018-05-14T07:48:41.693Z,74.63
2018-05-14T07:51:09.071Z,74.50
2018-05-14T07:53:36.515Z,75.65
2018-05-14T07:56:03.899Z,75.56
2018-05-14T07:58:31.308Z,76.17
2018-05-14T08:00:58.689Z,77.04
2018-05-14T08:03:26.087Z,77.32
2018-05-14T08:05:53.467Z,76.35
2018-05-14T08:08:20.863Z,75.90
2018-05-14T08:10:48.253Z,76.97
2018-05-14T08:13:15.652Z,75.95
2018-05-14T08:15:43.064Z,75.63
2018-05-14T08:18:10.452Z,76.35
2018-05-14T08:20:37.840Z,77.16
2018-05-14T08:23:05.227Z,76.68
2018-05-14T08:25:32.613Z,75.80
2018-05-14T08:27:59.995Z,76.07
2018-05-14T08:30:27.387Z,76.54
2018-05-14T08:32:54.788Z,76.27
2018-05-14T08:35:22.177Z,75.18
2018-05-14T08:37:49.579Z,75.45
2018-05-14T08:40:16.963Z,75.44
2018-05-14T08:42:44.373Z,75.28
2018-05-14T08:45:11.765Z,76.61
2018-05-14T08:47:39.151Z,77.78
2018-05-14T08:50:06.545Z,77.20
2018-05-14T08:52:33.930Z,78.57
2018-05-14T08:55:01.316Z,79.44
2018-05-14T08:57:28.718Z,78.61
2018-05-14T08:59:56.108Z,78.61
2018-05-14T09:02:23.495Z,78.65
2018-05-14T09:04:50.905Z,79.19
2018-05-14T09:07:18.276Z,80.39
2018-05-14T09:09:45.680Z,80.58
2018-05-14T09:12:13.061Z,81.50
2018-05-14T09:14:40.462Z,82.93
2018-05-14T09:17:07.852Z,84.66
2018-05-14T09:19:35.361Z,85.75
2018-05-14T09:22:02.634Z,85.68
2018-05-14T09:24:30.040Z,85.00
2018-05-14T09:26:57.420Z,84.63
2018-05-14T09:29:24.827Z,83.14
2018-05-14T09:31:52.605Z,83.15
2018-05-14T09:34:19.993Z,83.01
2018-05-14T09:36:47.376Z,82.77
2018-05-14T09:39:14.797Z,82.81
2018-05-14T09:41:42.195Z,83.37
2018-05-14T09:44:09.589Z,86.53
2018-05-14T09:46:36.993Z,86.76
2018-05-14T09:49:04.400Z,87.84
2018-05-14T09:51:31.796Z,89.48
2018-05-14T09:53:59.191Z,89.14
2018-05-14T09:56:26.578Z,88.29
2018-05-14T09:58:53.967Z,88.04
2018-05-14T10:01:21.351Z,88.59
2018-05-14T10:03:48.750Z,89.79
2018-05-14T10:06:16.139Z,90.17
2018-05-14T10:08:43.536Z,90.26
2018-05-14T10:11:10.934Z,89.48
2018-05-14T10:13:38.936Z,87.29
2018-05-14T10:16:06.366Z,84.15
2018-05-14T10:18:33.755Z,82.17
2018-05-14T10:21:01.160Z,80.33
2018-05-14T10:23:28.555Z,80.30
2018-05-14T10:25:55.949Z,79.09
2018-05-14T10:28:23.344Z,81.21
2018-05-14T10:30:50.732Z,81.59
2018-05-14T10:33:18.197Z,80.69
2018-05-14T10:35:45.585Z,79.29
2018-05-14T10:38:12.960Z,78.17
2018-05-14T10:40:40.390Z,79.56
2018-05-14T10:43:07.745Z,78.11
2018-05-14T10:45:35.128Z,74.56
2018-05-14T10:48:02.518Z,76.59
2018-05-14T10:50:29.903Z,75.94
2018-05-14T10:52:57.299Z,76.68
2018-05-14T10:55:24.662Z,75.34
2018-05-14T10:57:52.039Z,75.51
2018-05-14T11:00:19.422Z,75.91
2018-05-14T11:02:47.002Z,74.76
2018-05-14T11:05:14.375Z,73.25
2018-05-14T11:07:41.844Z,74.37
2018-05-14T11:10:09.226Z,75.09
2018-05-14T11:12:36.604Z,73.59
2018-05-14T11:15:03.988Z,74.26
2018-05-14T11:17:31.388Z,75.29
2018-05-14T11:19:58.772Z,73.74
2018-05-14T11:22:26.154Z,73.75
2018-05-14T11:24:53.553Z,73.38
2018-05-14T11:27:21.821Z,75.28
2018-05-14T11:29:49.155Z,74.51
2018-05-14T11:32:16.540Z,73.52
2018-05-14T11:34:43.931Z,73.09
2018-05-14T11:37:11.311Z,72.61
2018-05-14T11:39:38.707Z,72.89
2018-05-14T11:42:06.091Z,69.76
2018-05-14T11:44:33.477Z,70.47
2018-05-14T11:47:00.854Z,71.51
2018-05-14T11:49:28.246Z,74.55
2018-05-14T11:51:55.616Z,71.58
2018-05-14T11:54:23.000Z,70.40
2018-05-14T11:56:50.396Z,69.80
2018-05-14T11:59:17.775Z,72.57
2018-05-14T12:01:45.155Z,71.69
2018-05-14T12:04:12.540Z,68.64
2018-05-14T12:06:39.934Z,68.95
2018-05-14T12:09:07.324Z,71.04
2018-05-14T12:11:34.703Z,69.16
2018-05-14T12:14:02.090Z,67.50
2018-05-14T12:16:30.416Z,69.47
2018-05-14T12:18:57.792Z,69.38
2018-05-14T12:21:25.172Z,67.17
2018-05-14T12:23:52.573Z,68.32
2018-05-14T12:26:19.957Z,67.51
2018-05-14T12:28:47.340Z,67.44
2018-05-14T12:31:14.732Z,68.04
2018-05-14T12:33:42.106Z,67.24
2018-05-14T12:36:09.509Z,65.80
2018-05-14T12:38:36.894Z,65.34
2018-05-14T12:41:04.275Z,66.01
2018-05-14T12:43:31.687Z,65.26
2018-05-14T12:45:59.125Z,64.49
2018-05-14T12:48:27.125Z,65.09
2018-05-14T12:50:54.524Z,63.87
2018-05-14T12:53:21.904Z,64.92
2018-05-14T12:55:49.299Z,62.04
2018-05-14T12:58:16.672Z,61.92
2018-05-14T13:00:44.059Z,62.98
2018-05-14T13:03:11.450Z,61.93
2018-05-14T13:05:39.659Z,61.77
2018-05-14T13:08:07.639Z,61.45
2018-05-14T13:10:35.027Z,62.95
2018-05-14T13:13:02.422Z,62.28
2018-05-14T13:15:31.529Z,61.81
2018-05-14T13:17:58.907Z,62.00
2018-05-14T13:20:26.296Z,61.91
2018-05-14T13:22:54.195Z,62.20
2018-05-14T13:25:21.571Z,61.62
2018-05-14T13:27:48.960Z,61.50
2018-05-14T13:30:16.353Z,60.86
2018-05-14T13:32:43.748Z,58.85
2018-05-14T13:35:11.133Z,56.11
2018-05-14T13:37:38.663Z,55.99
2018-05-14T13:40:05.999Z,49.32
2018-05-14T13:42:33.403Z,49.33
2018-05-14T13:45:00.817Z,49.42
2018-05-14T13:47:28.228Z,57.47
2018-05-14T13:49:55.633Z,65.50
2018-05-14T13:52:23.007Z,75.39
2018-05-14T13:54:50.394Z,83.93
2018-05-14T13:57:17.809Z,86.92
2018-05-14T13:59:45.160Z,89.52
2018-05-14T14:02:12.539Z,91.42
2018-05-14T14:04:39.919Z,91.54
2018-05-14T14:07:07.304Z,92.23
2018-05-14T14:09:34.735Z,93.37
2018-05-14T14:12:02.113Z,93.97
2018-05-14T14:14:29.501Z,94.41
2018-05-14T14:16:57.004Z,94.44
2018-05-14T14:19:24.344Z,94.19
2018-05-14T14:21:51.723Z,94.24
2018-05-14T14:24:19.289Z,94.38
2018-05-14T14:26:46.509Z,94.27
2018-05-14T14:29:13.893Z,93.97
2018-05-14T14:31:41.276Z,93.90
2018-05-14T14:34:08.699Z,94.20
2018-05-14T14:36:36.104Z,93.79
2018-05-14T14:39:03.492Z,93.68
2018-05-14T14:41:30.880Z,93.25
2018-05-14T14:43:58.269Z,93.48
2018-05-14T14:46:25.713Z,93.86
2018-05-14T14:48:53.059Z,92.73
2018-05-14T14:51:20.447Z,92.49
2018-05-14T14:53:47.831Z,92.64
2018-05-14T14:56:15.230Z,92.77
2018-05-14T14:58:42.623Z,93.10
2018-05-14T15:01:10.016Z,92.19
2018-05-14T15:03:37.404Z,92.14
2018-05-14T15:06:04.814Z,93.16
2018-05-14T15:08:32.187Z,94.69
2018-05-14T15:10:59.577Z,92.88
2018-05-14T15:13:26.962Z,90.80
2018-05-14T15:15:54.352Z,89.83
2018-05-14T15:18:21.738Z,89.46
2018-05-14T15:20:49.128Z,90.13
2018-05-14T15:23:16.515Z,91.90
2018-05-14T15:25:43.905Z,92.00
2018-05-14T15:28:11.285Z,93.06
2018-05-14T15:30:38.679Z,93.21
2018-05-14T15:33:06.064Z,93.00
2018-05-14T15:35:33.451Z,93.34
2018-05-14T15:38:00.848Z,93.57
2018-05-14T15:40:28.236Z,93.94
2018-05-14T15:42:55.672Z,94.38
2018-05-14T15:45:23.052Z,94.72
2018-05-14T15:47:50.511Z,94.42
2018-05-14T15:50:17.884Z,93.85
2018-05-14T15:52:45.276Z,94.13
2018-05-14T15:55:12.671Z,94.11
2018-05-14T15:57:40.081Z,94.07
2018-05-14T16:00:07.475Z,93.79
2018-05-14T16:02:34.865Z,93.72
2018-05-14T16:05:02.283Z,93.09
2018-05-14T16:07:29.667Z,92.44
2018-05-14T16:09:57.109Z,92.09
2018-05-14T16:12:24.498Z,90.23
2018-05-14T16:14:51.899Z,89.59
2018-05-14T16:17:19.285Z,89.70
2018-05-14T16:19:46.679Z,90.85
2018-05-14T16:22:14.090Z,91.06
2018-05-14T16:24:41.482Z,91.42
2018-05-14T16:27:08.872Z,91.37
2018-05-14T16:29:36.260Z,91.00
2018-05-14T16:32:03.677Z,90.19
2018-05-14T16:34:31.063Z,91.69
2018-05-14T16:37:01.051Z,92.27
2018-05-14T16:39:40.972Z,92.24
2018-05-14T16:42:11.265Z,92.92
2018-05-14T16:44:40.208Z,92.59
2018-05-14T16:47:11.444Z,93.05
2018-05-14T16:49:40.811Z,93.46
2018-05-14T16:52:11.198Z,93.24
2018-05-14T16:54:42.172Z,92.94
2018-05-14T16:57:11.257Z,92.54
2018-05-14T16:59:38.831Z,92.21
2018-05-14T17:02:09.917Z,91.84
2018-05-14T17:22:42.309Z,80.27
2018-05-14T17:25:23.629Z,73.91
2018-05-14T17:27:51.605Z,66.74
2018-05-14T17:30:19.010Z,62.95
2018-05-14T17:32:46.364Z,63.60
2018-05-14T17:35:13.755Z,61.57
2018-05-14T17:37:41.127Z,60.82
2018-05-14T17:40:08.512Z,59.38
2018-05-14T17:42:36.229Z,58.86
2018-05-14T17:45:03.613Z,58.25
2018-05-14T17:47:30.991Z,56.97
2018-05-14T17:49:58.379Z,56.28
2018-05-14T17:52:25.776Z,55.45
2018-05-14T17:54:53.238Z,55.07
2018-05-14T17:57:20.600Z,55.16
2018-05-14T17:59:48.025Z,54.22
2018-05-14T18:02:15.411Z,54.40
2018-05-14T18:04:42.803Z,54.58
2018-05-14T18:07:10.195Z,52.63
2018-05-14T18:09:37.567Z,53.02
2018-05-14T18:12:04.951Z,53.80
2018-05-14T18:14:32.368Z,52.84
2018-05-14T18:17:01.043Z,51.95
2018-05-14T18:19:29.382Z,50.79
2018-05-14T18:22:02.362Z,52.15
2018-05-14T18:24:29.739Z,52.21
2018-05-14T18:26:57.127Z,49.98
2018-05-14T18:29:30.438Z,49.13
2018-05-14T18:31:57.823Z,49.60
2018-05-14T18:34:30.819Z,49.51
2018-05-14T18:36:58.201Z,49.33
2018-05-14T18:39:25.575Z,49.35
2018-05-14T18:41:52.955Z,49.91
2018-05-14T18:44:34.757Z,49.68
2018-05-14T18:47:02.147Z,49.33
2018-05-14T18:49:29.518Z,48.53
2018-05-14T18:51:56.928Z,49.44
2018-05-14T18:54:24.307Z,49.87
2018-05-14T18:56:51.951Z,50.24
2018-05-14T18:59:21.780Z,49.86
2018-05-14T19:01:49.169Z,50.20
2018-05-14T19:04:16.553Z,50.89
2018-05-14T19:06:43.948Z,50.92
2018-05-14T19:09:11.360Z,49.77
2018-05-14T19:11:44.479Z,49.75
2018-05-14T19:14:11.849Z,50.39
2018-05-14T19:16:44.824Z,49.83
2018-05-14T19:19:12.212Z,50.20
2018-05-14T19:21:39.608Z,50.70
2018-05-14T19:24:06.987Z,50.25
2018-05-14T19:26:34.369Z,50.56
2018-05-14T19:29:07.428Z,49.98
2018-05-14T19:31:34.811Z,50.33
2018-05-14T19:34:07.649Z,49.92
2018-05-14T19:36:35.036Z,50.34
2018-05-14T19:39:02.419Z,50.25
2018-05-14T19:41:29.864Z,50.37
2018-05-14T19:43:57.196Z,50.63
2018-05-14T19:46:24.622Z,49.65
2018-05-14T19:48:52.015Z,50.96
2018-05-14T19:51:19.423Z,50.62
2018-05-14T19:53:46.812Z,50.73
2018-05-14T19:56:14.178Z,50.08
2018-05-14T19:58:41.587Z,50.43
2018-05-14T20:01:08.965Z,50.90
2018-05-14T20:03:36.357Z,51.13
2018-05-14T20:06:03.744Z,51.29
2018-05-14T20:08:31.151Z,50.69
2018-05-14T20:10:58.527Z,51.43
2018-05-14T20:13:25.916Z,50.93
2018-05-14T20:15:53.287Z,51.31
2018-05-14T20:18:20.698Z,51.01
2018-05-14T20:20:48.079Z,50.83
2018-05-14T20:23:15.471Z,50.36
2018-05-14T20:25:42.862Z,50.53
2018-05-14T20:28:10.263Z,51.27
2018-05-14T20:30:37.643Z,51.38
2018-05-14T20:33:05.051Z,51.89
2018-05-14T20:35:32.443Z,51.95
2018-05-14T20:37:59.844Z,51.49
2018-05-14T20:40:27.221Z,52.14
2018-05-14T20:42:54.631Z,51.49
2018-05-14T20:45:22.009Z,51.77
2018-05-14T20:47:49.402Z,52.23
2018-05-14T20:50:16.778Z,52.71
2018-05-14T20:52:44.171Z,52.05
2018-05-14T20:55:11.555Z,52.17
2018-05-14T20:57:38.936Z,52.19
2018-05-14T21:00:06.319Z,51.96
2018-05-14T21:02:33.711Z,51.82
2018-05-14T21:05:01.092Z,51.78
2018-05-14T21:07:28.484Z,51.92
2018-05-14T21:09:55.928Z,51.49
2018-05-14T21:12:23.344Z,51.58
2018-05-14T21:14:52.259Z,52.36
2018-05-14T21:17:19.588Z,51.99
2018-05-14T21:19:47.192Z,52.15
2018-05-14T21:22:15.506Z,52.05
2018-05-14T21:24:42.989Z,51.78
2018-05-14T21:27:12.089Z,51.41
2018-05-14T21:29:40.018Z,51.22
2018-05-14T21:32:07.764Z,50.72
2018-05-14T21:34:35.158Z,51.12
2018-05-14T21:37:07.822Z,50.63
2018-05-14T21:39:35.288Z,50.39
2018-05-14T21:42:02.722Z,51.32
2018-05-14T21:44:30.865Z,49.13
2018-05-14T21:47:03.209Z,49.90
2018-05-14T21:49:31.530Z,50.14
2018-05-14T21:52:00.879Z,49.71
2018-05-14T21:54:29.756Z,50.33
2018-05-14T21:57:01.424Z,49.90
2018-05-14T21:59:29.725Z,49.60
2018-05-14T22:02:06.974Z,50.13
2018-05-14T22:04:35.604Z,49.87
2018-05-14T22:07:10.402Z,50.00
2018-05-14T22:09:40.783Z,50.02
2018-05-14T22:12:09.575Z,50.72
2018-05-14T22:14:43.202Z,50.17
2018-05-14T22:17:12.540Z,50.62
2018-05-14T22:19:42.477Z,50.84
2018-05-14T22:22:13.383Z,50.65
2018-05-14T22:24:47.721Z,50.82
2018-05-14T22:27:16.535Z,51.16
2018-05-14T22:29:48.208Z,51.03
2018-05-14T22:32:17.786Z,50.91
2018-05-14T22:34:49.158Z,50.17
2018-05-14T22:37:16.772Z,51.47
2018-05-14T22:39:47.271Z,51.44
2018-05-14T22:42:16.963Z,51.93
2018-05-14T22:44:46.774Z,53.17
2018-05-14T22:47:17.455Z,51.86
2018-05-14T22:49:46.331Z,51.27
2018-05-14T22:52:20.492Z,50.95
2018-05-14T22:54:51.693Z,50.89
2018-05-14T22:57:23.828Z,50.99
2018-05-14T22:59:52.597Z,49.84
2018-05-14T23:02:21.474Z,50.15
2018-05-14T23:04:50.701Z,50.17
2018-05-14T23:07:26.020Z,49.05
2018-05-14T23:09:55.054Z,50.87
2018-05-14T23:12:24.882Z,50.09
2018-05-14T23:14:53.763Z,50.25
2018-05-14T23:17:32.625Z,50.14
2018-05-14T23:20:02.318Z,49.98
2018-05-14T23:22:41.999Z,49.25
2018-05-14T23:25:10.874Z,49.11
2018-05-14T23:27:39.980Z,49.34
2018-05-14T23:30:11.653Z,49.40
2018-05-14T23:32:42.561Z,48.32
2018-05-14T23:35:13.651Z,49.05
2018-05-14T23:37:41.061Z,49.64
2018-05-14T23:40:08.480Z,48.91
2018-05-14T23:42:35.892Z,49.40
2018-05-14T23:45:03.281Z,49.88
2018-05-14T23:47:30.687Z,49.42
2018-05-14T23:49:58.088Z,49.21
2018-05-14T23:52:25.467Z,49.49
2018-05-14T23:54:52.871Z,49.39
2018-05-14T23:57:20.285Z,49.81
2018-05-14T23:59:47.729Z,49.72
